Alenquer Airport


Codes: BR-ALT/ALT
Name: Alenquer Airport
City: Alenquer
Country: Brazil
Elevation: 55 ft.

Photos at Alenquer Airport


   Photos courtesy of SpottingLog. You can add your own sightings and photos by signing up for a free trial today.



No photos found.

Weather at Alenquer Airport


Time (UTC)DescriptionTempratureWindCloud coverageVisibilityPressureHumidity
25-Jun-2024 12:00Overcast Clouds24°C2 mph, E100%10000m1015hPa90%
25-Jun-2024 15:00Overcast Clouds26°C7 mph, E95%10000m1015hPa79%
25-Jun-2024 18:00Broken Clouds30°C2 mph, E78%10000m1012hPa63%
25-Jun-2024 21:00Overcast Clouds28°C2 mph, N100%10000m1010hPa69%
26-Jun-2024 00:00Light Rain24°C4 mph, N75%10000m1013hPa93%
26-Jun-2024 03:00Few Clouds23°C4 mph, N13%10000m1014hPa95%
26-Jun-2024 06:00Few Clouds23°C2 mph, N13%10000m1012hPa94%
26-Jun-2024 09:00Scattered Clouds22°C2 mph, N27%10000m1012hPa93%
26-Jun-2024 12:00Few Clouds26°C2 mph, NE21%10000m1014hPa78%
26-Jun-2024 15:00Clear Sky32°C2 mph, E3%10000m1013hPa53%
26-Jun-2024 18:00Light Rain33°C4 mph, S9%10000m1009hPa45%
26-Jun-2024 21:00Broken Clouds29°C2 mph, W57%10000m1009hPa68%
27-Jun-2024 00:00Scattered Clouds26°C0 mph, W32%10000m1012hPa79%
27-Jun-2024 03:00Few Clouds25°C2 mph, N16%10000m1012hPa80%
27-Jun-2024 06:00Clear Sky24°C2 mph, N8%10000m1011hPa86%
27-Jun-2024 09:00Clear Sky23°C2 mph, N4%10000m1012hPa87%
27-Jun-2024 12:00Clear Sky27°C2 mph, NE7%10000m1014hPa69%
27-Jun-2024 15:00Clear Sky31°C2 mph, E7%10000m1013hPa53%
27-Jun-2024 18:00Few Clouds34°C2 mph, SE18%10000m1008hPa43%
27-Jun-2024 21:00Light Rain29°C2 mph, S55%10000m1008hPa65%
28-Jun-2024 00:00Scattered Clouds26°C4 mph, N27%10000m1010hPa76%
28-Jun-2024 03:00Few Clouds25°C4 mph, N17%10000m1011hPa82%
28-Jun-2024 06:00Clear Sky23°C2 mph, NE9%10000m1009hPa86%
28-Jun-2024 09:00Clear Sky23°C2 mph, E4%10000m1010hPa88%
28-Jun-2024 12:00Clear Sky27°C4 mph, NE2%10000m1013hPa71%
28-Jun-2024 15:00Clear Sky32°C4 mph, E0%10000m1012hPa51%
28-Jun-2024 18:00Few Clouds33°C4 mph, E15%10000m1008hPa48%
28-Jun-2024 21:00Overcast Clouds27°C2 mph, W94%10000m1009hPa71%
29-Jun-2024 00:00Light Rain26°C4 mph, NE88%10000m1011hPa76%
29-Jun-2024 03:00Overcast Clouds25°C4 mph, NE96%10000m1012hPa82%
29-Jun-2024 06:00Broken Clouds24°C4 mph, NE84%10000m1011hPa87%
29-Jun-2024 09:00Few Clouds23°C2 mph, E24%10000m1012hPa92%
29-Jun-2024 12:00Few Clouds27°C7 mph, E15%10000m1014hPa74%
29-Jun-2024 15:00Clear Sky32°C4 mph, E9%10000m1013hPa52%
29-Jun-2024 18:00Few Clouds33°C4 mph, E21%10000m1010hPa49%
29-Jun-2024 21:00Scattered Clouds31°C2 mph, E48%10000m1010hPa59%
30-Jun-2024 00:00Scattered Clouds27°C2 mph, N47%10000m1012hPa72%
30-Jun-2024 03:00Light Rain26°C2 mph, NE82%10000m1013hPa79%
30-Jun-2024 06:00Scattered Clouds24°C2 mph, NE50%10000m1012hPa86%
30-Jun-2024 09:00Clear Sky23°C4 mph, E7%10000m1012hPa88%